sensor_id;sensor_type;location;lat;lon;timestamp;pressure;altitude;pressure_sealevel;temperature;humidity
70198;BME280;57582;-34.876;138.628;2022-11-10T00:00:28;100467;;;23.21;55.53
70198;BME280;57582;-34.876;138.628;2022-11-10T00:03:28;100472;;;23.32;55.71
70198;BME280;57582;-34.876;138.628;2022-11-10T00:06:29;100486;;;23.30;55.09
70198;BME280;57582;-34.876;138.628;2022-11-10T00:09:28;100488;;;23.28;55.21
70198;BME280;57582;-34.876;138.628;2022-11-10T00:12:28;100480;;;23.36;55.54
70198;BME280;57582;-34.876;138.628;2022-11-10T00:15:28;100481;;;23.48;55.23
70198;BME280;57582;-34.876;138.628;2022-11-10T00:18:28;100476;;;23.63;54.55
70198;BME280;57582;-34.876;138.628;2022-11-10T00:21:28;100470;;;23.66;54.03
70198;BME280;57582;-34.876;138.628;2022-11-10T00:24:28;100475;;;23.57;54.12
70198;BME280;57582;-34.876;138.628;2022-11-10T00:27:28;100474;;;23.18;55.58
70198;BME280;57582;-34.876;138.628;2022-11-10T00:30:28;100471;;;23.23;54.46
70198;BME280;57582;-34.876;138.628;2022-11-10T00:33:28;100463;;;23.28;55.10
70198;BME280;57582;-34.876;138.628;2022-11-10T00:36:28;100462;;;23.56;54.23
70198;BME280;57582;-34.876;138.628;2022-11-10T00:39:28;100457;;;23.78;53.42
70198;BME280;57582;-34.876;138.628;2022-11-10T00:42:29;100463;;;23.83;53.24
70198;BME280;57582;-34.876;138.628;2022-11-10T00:45:28;100455;;;23.92;53.05
70198;BME280;57582;-34.876;138.628;2022-11-10T00:48:28;100438;;;23.98;52.48
70198;BME280;57582;-34.876;138.628;2022-11-10T00:51:28;100444;;;23.99;51.85
70198;BME280;57582;-34.876;138.628;2022-11-10T00:54:29;100431;;;24.08;52.57
70198;BME280;57582;-34.876;138.628;2022-11-10T00:57:28;100415;;;24.16;51.55
70198;BME280;57582;-34.876;138.628;2022-11-10T01:00:28;100423;;;23.79;52.26
70198;BME280;57582;-34.876;138.628;2022-11-10T01:03:28;100414;;;24.04;53.14
70198;BME280;57582;-34.876;138.628;2022-11-10T01:06:29;100407;;;24.33;51.52
70198;BME280;57582;-34.876;138.628;2022-11-10T01:09:28;100420;;;24.44;51.03
70198;BME280;57582;-34.876;138.628;2022-11-10T01:12:28;100427;;;24.48;50.44
70198;BME280;57582;-34.876;138.628;2022-11-10T01:15:28;100431;;;24.21;51.11
70198;BME280;57582;-34.876;138.628;2022-11-10T01:18:28;100434;;;24.16;51.39
70198;BME280;57582;-34.876;138.628;2022-11-10T01:21:28;100434;;;24.18;50.91
70198;BME280;57582;-34.876;138.628;2022-11-10T01:24:28;100431;;;23.98;51.10
70198;BME280;57582;-34.876;138.628;2022-11-10T01:27:28;100418;;;23.94;50.88
70198;BME280;57582;-34.876;138.628;2022-11-10T01:30:29;100433;;;23.92;51.64
70198;BME280;57582;-34.876;138.628;2022-11-10T01:33:28;100413;;;24.32;51.57
70198;BME280;57582;-34.876;138.628;2022-11-10T01:36:28;100408;;;24.59;49.63
70198;BME280;57582;-34.876;138.628;2022-11-10T01:39:28;100415;;;24.65;49.33
70198;BME280;57582;-34.876;138.628;2022-11-10T01:42:57;100411;;;24.52;49.50
70198;BME280;57582;-34.876;138.628;2022-11-10T01:51:34;100425;;;24.04;51.95
70198;BME280;57582;-34.876;138.628;2022-11-10T01:54:33;100421;;;24.32;52.05
70198;BME280;57582;-34.876;138.628;2022-11-10T01:57:28;100411;;;24.42;50.78
70198;BME280;57582;-34.876;138.628;2022-11-10T02:00:28;100416;;;24.38;49.90
70198;BME280;57582;-34.876;138.628;2022-11-10T02:03:44;100408;;;24.59;49.90
70198;BME280;57582;-34.876;138.628;2022-11-10T02:06:30;100413;;;24.57;50.21
70198;BME280;57582;-34.876;138.628;2022-11-10T02:09:28;100401;;;24.73;49.96
70198;BME280;57582;-34.876;138.628;2022-11-10T02:12:28;100401;;;24.75;49.54
70198;BME280;57582;-34.876;138.628;2022-11-10T02:15:28;100396;;;24.43;49.80
70198;BME280;57582;-34.876;138.628;2022-11-10T02:18:29;100394;;;24.59;50.05
70198;BME280;57582;-34.876;138.628;2022-11-10T02:21:28;100392;;;24.54;49.58
70198;BME280;57582;-34.876;138.628;2022-11-10T02:24:28;100389;;;24.66;49.89
70198;BME280;57582;-34.876;138.628;2022-11-10T02:27:28;100388;;;24.80;50.90
70198;BME280;57582;-34.876;138.628;2022-11-10T02:30:29;100381;;;25.14;49.73
70198;BME280;57582;-34.876;138.628;2022-11-10T02:33:28;100380;;;25.22;50.00
70198;BME280;57582;-34.876;138.628;2022-11-10T02:36:28;100383;;;25.46;48.14
70198;BME280;57582;-34.876;138.628;2022-11-10T02:39:28;100378;;;25.42;48.19
70198;BME280;57582;-34.876;138.628;2022-11-10T02:42:29;100376;;;25.33;47.77
70198;BME280;57582;-34.876;138.628;2022-11-10T02:45:28;100375;;;25.39;47.90
70198;BME280;57582;-34.876;138.628;2022-11-10T02:48:28;100367;;;25.43;48.33
70198;BME280;57582;-34.876;138.628;2022-11-10T02:51:29;100364;;;25.34;47.90
70198;BME280;57582;-34.876;138.628;2022-11-10T02:54:29;100363;;;25.52;47.74
70198;BME280;57582;-34.876;138.628;2022-11-10T02:57:28;100360;;;25.60;46.82
70198;BME280;57582;-34.876;138.628;2022-11-10T03:00:28;100374;;;25.37;47.72
70198;BME280;57582;-34.876;138.628;2022-11-10T03:03:28;100385;;;25.40;48.20
70198;BME280;57582;-34.876;138.628;2022-11-10T03:06:29;100384;;;25.23;48.52
70198;BME280;57582;-34.876;138.628;2022-11-10T03:09:28;100389;;;25.09;48.12
70198;BME280;57582;-34.876;138.628;2022-11-10T03:12:28;100385;;;24.75;49.00
70198;BME280;57582;-34.876;138.628;2022-11-10T03:15:28;100375;;;24.87;49.52
70198;BME280;57582;-34.876;138.628;2022-11-10T03:18:29;100385;;;25.03;49.34
70198;BME280;57582;-34.876;138.628;2022-11-10T03:21:28;100394;;;24.89;49.11
70198;BME280;57582;-34.876;138.628;2022-11-10T03:24:28;100389;;;24.89;50.09
70198;BME280;57582;-34.876;138.628;2022-11-10T03:27:28;100391;;;25.15;49.24
70198;BME280;57582;-34.876;138.628;2022-11-10T03:30:29;100382;;;25.28;47.36
70198;BME280;57582;-34.876;138.628;2022-11-10T03:33:28;100374;;;25.43;47.34
70198;BME280;57582;-34.876;138.628;2022-11-10T03:36:28;100380;;;25.44;47.32
70198;BME280;57582;-34.876;138.628;2022-11-10T03:39:28;100391;;;25.24;47.93
70198;BME280;57582;-34.876;138.628;2022-11-10T03:42:29;100384;;;25.23;47.90
70198;BME280;57582;-34.876;138.628;2022-11-10T03:45:28;100381;;;25.04;48.49
70198;BME280;57582;-34.876;138.628;2022-11-10T03:48:28;100378;;;25.23;48.44
70198;BME280;57582;-34.876;138.628;2022-11-10T03:51:28;100373;;;25.20;48.42
70198;BME280;57582;-34.876;138.628;2022-11-10T03:54:29;100377;;;25.30;47.48
70198;BME280;57582;-34.876;138.628;2022-11-10T03:57:28;100379;;;25.27;47.68
70198;BME280;57582;-34.876;138.628;2022-11-10T04:00:28;100374;;;25.24;47.44
70198;BME280;57582;-34.876;138.628;2022-11-10T04:03:28;100367;;;24.97;47.85
70198;BME280;57582;-34.876;138.628;2022-11-10T04:06:30;100374;;;25.13;47.78
70198;BME280;57582;-34.876;138.628;2022-11-10T04:09:28;100378;;;24.97;47.95
70198;BME280;57582;-34.876;138.628;2022-11-10T04:12:28;100379;;;24.96;47.73
70198;BME280;57582;-34.876;138.628;2022-11-10T04:15:28;100380;;;24.87;48.42
70198;BME280;57582;-34.876;138.628;2022-11-10T04:18:29;100376;;;24.84;48.80
70198;BME280;57582;-34.876;138.628;2022-11-10T04:21:28;100373;;;25.14;48.06
70198;BME280;57582;-34.876;138.628;2022-11-10T04:24:28;100379;;;25.36;47.35
70198;BME280;57582;-34.876;138.628;2022-11-10T04:27:28;100375;;;25.41;47.20
70198;BME280;57582;-34.876;138.628;2022-11-10T04:30:29;100380;;;25.31;46.31
70198;BME280;57582;-34.876;138.628;2022-11-10T04:33:28;100384;;;25.33;47.58
70198;BME280;57582;-34.876;138.628;2022-11-10T04:36:29;100374;;;25.37;47.24
70198;BME280;57582;-34.876;138.628;2022-11-10T04:39:28;100362;;;25.53;47.81
70198;BME280;57582;-34.876;138.628;2022-11-10T04:42:29;100361;;;25.67;47.02
70198;BME280;57582;-34.876;138.628;2022-11-10T04:45:28;100364;;;25.61;46.62
70198;BME280;57582;-34.876;138.628;2022-11-10T04:48:29;100356;;;25.63;46.82
70198;BME280;57582;-34.876;138.628;2022-11-10T04:51:29;100359;;;25.61;46.63
70198;BME280;57582;-34.876;138.628;2022-11-10T04:54:30;100353;;;25.44;47.07
70198;BME280;57582;-34.876;138.628;2022-11-10T04:57:28;100358;;;25.39;47.16
70198;BME280;57582;-34.876;138.628;2022-11-10T05:00:28;100359;;;25.41;47.20
70198;BME280;57582;-34.876;138.628;2022-11-10T05:03:28;100365;;;25.17;47.96
70198;BME280;57582;-34.876;138.628;2022-11-10T05:06:29;100358;;;25.51;47.54
70198;BME280;57582;-34.876;138.628;2022-11-10T05:09:28;100356;;;25.73;46.36
70198;BME280;57582;-34.876;138.628;2022-11-10T05:12:28;100359;;;25.74;45.81
70198;BME280;57582;-34.876;138.628;2022-11-10T05:15:29;100357;;;25.70;45.62
70198;BME280;57582;-34.876;138.628;2022-11-10T05:18:29;100367;;;25.76;45.84
70198;BME280;57582;-34.876;138.628;2022-11-10T05:21:28;100365;;;26.07;45.68
70198;BME280;57582;-34.876;138.628;2022-11-10T05:24:28;100360;;;26.27;44.90
70198;BME280;57582;-34.876;138.628;2022-11-10T05:27:28;100365;;;26.32;44.49
70198;BME280;57582;-34.876;138.628;2022-11-10T05:30:29;100363;;;26.38;43.33
70198;BME280;57582;-34.876;138.628;2022-11-10T05:33:29;100359;;;26.12;43.90
70198;BME280;57582;-34.876;138.628;2022-11-10T05:36:28;100353;;;25.95;44.67
70198;BME280;57582;-34.876;138.628;2022-11-10T05:39:28;100361;;;25.85;45.64
70198;BME280;57582;-34.876;138.628;2022-11-10T05:42:29;100352;;;25.60;45.28
70198;BME280;57582;-34.876;138.628;2022-11-10T05:45:28;100356;;;25.33;46.55
70198;BME280;57582;-34.876;138.628;2022-11-10T05:48:28;100348;;;25.44;46.55
70198;BME280;57582;-34.876;138.628;2022-11-10T05:51:29;100339;;;25.58;46.38
70198;BME280;57582;-34.876;138.628;2022-11-10T05:54:29;100340;;;25.36;47.28
70198;BME280;57582;-34.876;138.628;2022-11-10T05:57:29;100345;;;25.12;47.56
70198;BME280;57582;-34.876;138.628;2022-11-10T06:00:29;100342;;;25.26;47.74
70198;BME280;57582;-34.876;138.628;2022-11-10T06:03:29;100339;;;25.39;47.64
70198;BME280;57582;-34.876;138.628;2022-11-10T06:06:29;100335;;;25.63;47.02
70198;BME280;57582;-34.876;138.628;2022-11-10T06:09:29;100341;;;25.67;46.20
70198;BME280;57582;-34.876;138.628;2022-11-10T06:12:29;100343;;;25.52;46.37
70198;BME280;57582;-34.876;138.628;2022-11-10T06:15:29;100340;;;25.60;47.74
70198;BME280;57582;-34.876;138.628;2022-11-10T06:18:29;100336;;;25.89;46.52
70198;BME280;57582;-34.876;138.628;2022-11-10T06:21:29;100346;;;26.21;45.89
70198;BME280;57582;-34.876;138.628;2022-11-10T06:24:29;100335;;;26.19;45.10
70198;BME280;57582;-34.876;138.628;2022-11-10T06:27:29;100338;;;25.94;45.17
70198;BME280;57582;-34.876;138.628;2022-11-10T06:30:31;100339;;;25.78;45.50
70198;BME280;57582;-34.876;138.628;2022-11-10T06:33:29;100341;;;25.84;45.92
70198;BME280;57582;-34.876;138.628;2022-11-10T06:36:29;100341;;;25.87;45.37
70198;BME280;57582;-34.876;138.628;2022-11-10T06:39:29;100341;;;25.72;45.55
70198;BME280;57582;-34.876;138.628;2022-11-10T06:42:30;100345;;;25.73;45.55
70198;BME280;57582;-34.876;138.628;2022-11-10T06:45:29;100348;;;25.51;46.31
70198;BME280;57582;-34.876;138.628;2022-11-10T06:48:29;100345;;;25.39;47.40
70198;BME280;57582;-34.876;138.628;2022-11-10T06:51:29;100348;;;25.18;49.98
70198;BME280;57582;-34.876;138.628;2022-11-10T06:54:29;100347;;;25.13;48.92
70198;BME280;57582;-34.876;138.628;2022-11-10T06:57:30;100347;;;25.26;48.49
70198;BME280;57582;-34.876;138.628;2022-11-10T07:00:29;100341;;;25.27;48.65
70198;BME280;57582;-34.876;138.628;2022-11-10T07:03:29;100340;;;25.35;48.12
70198;BME280;57582;-34.876;138.628;2022-11-10T07:06:29;100341;;;25.25;49.10
70198;BME280;57582;-34.876;138.628;2022-11-10T07:09:29;100332;;;25.17;49.25
70198;BME280;57582;-34.876;138.628;2022-11-10T07:12:29;100335;;;25.10;49.87
70198;BME280;57582;-34.876;138.628;2022-11-10T07:15:29;100338;;;25.01;50.50
70198;BME280;57582;-34.876;138.628;2022-11-10T07:18:29;100336;;;24.90;50.72
70198;BME280;57582;-34.876;138.628;2022-11-10T07:21:29;100338;;;24.68;51.53
70198;BME280;57582;-34.876;138.628;2022-11-10T07:24:29;100344;;;24.43;52.63
70198;BME280;57582;-34.876;138.628;2022-11-10T07:27:29;100338;;;24.28;52.96
70198;BME280;57582;-34.876;138.628;2022-11-10T07:30:30;100335;;;24.12;53.60
70198;BME280;57582;-34.876;138.628;2022-11-10T07:33:29;100346;;;23.96;53.82
70198;BME280;57582;-34.876;138.628;2022-11-10T07:36:29;100345;;;23.95;54.00
70198;BME280;57582;-34.876;138.628;2022-11-10T07:39:29;100342;;;23.74;54.18
70198;BME280;57582;-34.876;138.628;2022-11-10T07:42:30;100356;;;23.58;54.72
70198;BME280;57582;-34.876;138.628;2022-11-10T07:45:29;100353;;;23.48;54.96
70198;BME280;57582;-34.876;138.628;2022-11-10T07:48:29;100355;;;23.14;56.07
70198;BME280;57582;-34.876;138.628;2022-11-10T07:51:29;100356;;;23.09;56.63
70198;BME280;57582;-34.876;138.628;2022-11-10T07:54:29;100364;;;23.03;56.64
70198;BME280;57582;-34.876;138.628;2022-11-10T07:57:29;100357;;;23.08;56.37
70198;BME280;57582;-34.876;138.628;2022-11-10T08:00:29;100355;;;22.83;56.60
70198;BME280;57582;-34.876;138.628;2022-11-10T08:03:29;100366;;;22.72;56.62
70198;BME280;57582;-34.876;138.628;2022-11-10T08:06:30;100359;;;22.75;56.56
70198;BME280;57582;-34.876;138.628;2022-11-10T08:09:29;100376;;;22.57;56.73
70198;BME280;57582;-34.876;138.628;2022-11-10T08:12:29;100377;;;22.46;57.13
70198;BME280;57582;-34.876;138.628;2022-11-10T08:15:29;100379;;;22.34;57.30
70198;BME280;57582;-34.876;138.628;2022-11-10T08:18:30;100383;;;22.22;57.46
70198;BME280;57582;-34.876;138.628;2022-11-10T08:21:29;100387;;;22.19;57.34
70198;BME280;57582;-34.876;138.628;2022-11-10T08:24:29;100393;;;21.98;58.07
70198;BME280;57582;-34.876;138.628;2022-11-10T08:27:29;100393;;;22.03;58.07
70198;BME280;57582;-34.876;138.628;2022-11-10T08:30:30;100396;;;22.04;58.36
70198;BME280;57582;-34.876;138.628;2022-11-10T08:33:29;100406;;;22.02;58.24
70198;BME280;57582;-34.876;138.628;2022-11-10T08:36:29;100419;;;22.03;58.47
70198;BME280;57582;-34.876;138.628;2022-11-10T08:39:29;100418;;;22.13;58.34
70198;BME280;57582;-34.876;138.628;2022-11-10T08:42:30;100427;;;22.01;58.85
70198;BME280;57582;-34.876;138.628;2022-11-10T08:45:29;100432;;;21.91;59.26
70198;BME280;57582;-34.876;138.628;2022-11-10T08:48:29;100432;;;21.91;58.53
70198;BME280;57582;-34.876;138.628;2022-11-10T08:51:29;100439;;;21.89;57.94
70198;BME280;57582;-34.876;138.628;2022-11-10T08:54:29;100451;;;21.91;57.79
70198;BME280;57582;-34.876;138.628;2022-11-10T08:57:29;100456;;;21.89;57.65
70198;BME280;57582;-34.876;138.628;2022-11-10T09:00:30;100451;;;21.93;57.02
70198;BME280;57582;-34.876;138.628;2022-11-10T09:03:29;100447;;;22.10;56.60
70198;BME280;57582;-34.876;138.628;2022-11-10T09:06:29;100453;;;22.31;55.60
70198;BME280;57582;-34.876;138.628;2022-11-10T09:09:29;100462;;;22.26;55.41
70198;BME280;57582;-34.876;138.628;2022-11-10T09:12:29;100466;;;22.35;55.22
70198;BME280;57582;-34.876;138.628;2022-11-10T09:15:29;100473;;;22.48;54.91
70198;BME280;57582;-34.876;138.628;2022-11-10T09:18:30;100480;;;22.40;54.50
70198;BME280;57582;-34.876;138.628;2022-11-10T09:21:29;100489;;;22.36;54.40
70198;BME280;57582;-34.876;138.628;2022-11-10T09:24:29;100490;;;22.36;54.57
70198;BME280;57582;-34.876;138.628;2022-11-10T09:27:29;100498;;;22.33;54.35
70198;BME280;57582;-34.876;138.628;2022-11-10T09:30:30;100497;;;22.31;54.44
70198;BME280;57582;-34.876;138.628;2022-11-10T09:33:29;100503;;;22.28;54.53
70198;BME280;57582;-34.876;138.628;2022-11-10T09:36:29;100506;;;22.28;54.53
70198;BME280;57582;-34.876;138.628;2022-11-10T09:39:29;100508;;;22.27;54.69
70198;BME280;57582;-34.876;138.628;2022-11-10T09:42:34;100516;;;22.31;54.56
70198;BME280;57582;-34.876;138.628;2022-11-10T09:45:31;100523;;;22.40;54.32
70198;BME280;57582;-34.876;138.628;2022-11-10T09:48:30;100514;;;22.51;54.07
70198;BME280;57582;-34.876;138.628;2022-11-10T09:51:32;100524;;;22.60;53.46
70198;BME280;57582;-34.876;138.628;2022-11-10T09:57:29;100535;;;22.72;53.10
70198;BME280;57582;-34.876;138.628;2022-11-10T10:00:29;100538;;;22.72;53.22
70198;BME280;57582;-34.876;138.628;2022-11-10T10:03:29;100541;;;22.64;53.18
70198;BME280;57582;-34.876;138.628;2022-11-10T10:06:30;100547;;;22.60;53.34
70198;BME280;57582;-34.876;138.628;2022-11-10T10:18:33;100552;;;22.78;53.45
70198;BME280;57582;-34.876;138.628;2022-11-10T10:24:29;100554;;;22.62;53.76
70198;BME280;57582;-34.876;138.628;2022-11-10T10:27:29;100570;;;22.65;53.76
70198;BME280;57582;-34.876;138.628;2022-11-10T10:30:30;100569;;;22.64;53.49
70198;BME280;57582;-34.876;138.628;2022-11-10T10:33:29;100566;;;22.50;53.96
70198;BME280;57582;-34.876;138.628;2022-11-10T10:36:29;100572;;;22.36;54.86
70198;BME280;57582;-34.876;138.628;2022-11-10T10:39:33;100579;;;22.31;55.00
70198;BME280;57582;-34.876;138.628;2022-11-10T10:42:30;100584;;;22.37;55.16
70198;BME280;57582;-34.876;138.628;2022-11-10T10:45:29;100582;;;22.51;54.74
70198;BME280;57582;-34.876;138.628;2022-11-10T10:48:29;100585;;;22.61;54.64
70198;BME280;57582;-34.876;138.628;2022-11-10T10:51:29;100599;;;22.53;55.09
70198;BME280;57582;-34.876;138.628;2022-11-10T10:54:31;100591;;;22.31;55.84
70198;BME280;57582;-34.876;138.628;2022-11-10T10:57:29;100591;;;22.01;56.92
70198;BME280;57582;-34.876;138.628;2022-11-10T11:00:29;100600;;;22.00;57.33
70198;BME280;57582;-34.876;138.628;2022-11-10T11:06:30;100603;;;22.21;57.00
70198;BME280;57582;-34.876;138.628;2022-11-10T11:09:37;100615;;;22.19;56.34
70198;BME280;57582;-34.876;138.628;2022-11-10T11:12:29;100610;;;22.23;55.88
70198;BME280;57582;-34.876;138.628;2022-11-10T11:15:29;100618;;;22.06;56.28
70198;BME280;57582;-34.876;138.628;2022-11-10T11:18:30;100632;;;21.98;56.92
70198;BME280;57582;-34.876;138.628;2022-11-10T11:21:31;100633;;;21.99;56.80
70198;BME280;57582;-34.876;138.628;2022-11-10T11:30:33;100638;;;21.43;57.68
70198;BME280;57582;-34.876;138.628;2022-11-10T11:33:31;100630;;;21.37;57.96
70198;BME280;57582;-34.876;138.628;2022-11-10T11:42:37;100637;;;20.78;58.40
70198;BME280;57582;-34.876;138.628;2022-11-10T11:48:46;100631;;;20.57;58.59
70198;BME280;57582;-34.876;138.628;2022-11-10T12:00:29;100624;;;20.69;59.15
70198;BME280;57582;-34.876;138.628;2022-11-10T12:09:46;100636;;;20.79;58.19
70198;BME280;57582;-34.876;138.628;2022-11-10T12:18:30;100619;;;21.59;56.12
70198;BME280;57582;-34.876;138.628;2022-11-10T12:24:36;100609;;;22.10;54.50
70198;BME280;57582;-34.876;138.628;2022-11-10T12:27:30;100596;;;22.15;54.32
70198;BME280;57582;-34.876;138.628;2022-11-10T12:30:30;100589;;;22.22;54.15
70198;BME280;57582;-34.876;138.628;2022-11-10T12:33:47;100583;;;22.33;55.08
70198;BME280;57582;-34.876;138.628;2022-11-10T12:36:29;100589;;;22.27;54.13
70198;BME280;57582;-34.876;138.628;2022-11-10T12:39:40;100596;;;21.91;55.07
70198;BME280;57582;-34.876;138.628;2022-11-10T12:42:30;100590;;;21.73;55.12
70198;BME280;57582;-34.876;138.628;2022-11-10T12:45:31;100603;;;21.62;56.36
70198;BME280;57582;-34.876;138.628;2022-11-10T12:48:32;100600;;;21.47;55.52
70198;BME280;57582;-34.876;138.628;2022-11-10T12:54:30;100597;;;21.50;54.82
70198;BME280;57582;-34.876;138.628;2022-11-10T12:57:29;100597;;;21.55;54.23
70198;BME280;57582;-34.876;138.628;2022-11-10T13:00:30;100596;;;21.45;54.28
70198;BME280;57582;-34.876;138.628;2022-11-10T13:03:30;100595;;;21.29;54.48
70198;BME280;57582;-34.876;138.628;2022-11-10T13:06:30;100593;;;21.13;54.76
70198;BME280;57582;-34.876;138.628;2022-11-10T13:12:29;100580;;;21.08;55.23
70198;BME280;57582;-34.876;138.628;2022-11-10T13:15:45;100585;;;21.08;55.36
70198;BME280;57582;-34.876;138.628;2022-11-10T13:24:31;100595;;;21.44;54.44
70198;BME280;57582;-34.876;138.628;2022-11-10T13:30:46;100594;;;21.64;53.87
70198;BME280;57582;-34.876;138.628;2022-11-10T13:33:37;100595;;;21.69;53.61
70198;BME280;57582;-34.876;138.628;2022-11-10T13:36:45;100597;;;21.67;53.76
70198;BME280;57582;-34.876;138.628;2022-11-10T13:39:31;100585;;;21.74;53.43
70198;BME280;57582;-34.876;138.628;2022-11-10T13:42:30;100585;;;21.71;53.43
70198;BME280;57582;-34.876;138.628;2022-11-10T13:48:34;100593;;;21.58;53.03
70198;BME280;57582;-34.876;138.628;2022-11-10T13:51:35;100591;;;21.42;53.64
70198;BME280;57582;-34.876;138.628;2022-11-10T14:00:30;100571;;;21.10;54.26
70198;BME280;57582;-34.876;138.628;2022-11-10T14:04:00;100567;;;21.07;53.83
70198;BME280;57582;-34.876;138.628;2022-11-10T14:12:33;100561;;;21.04;53.50
70198;BME280;57582;-34.876;138.628;2022-11-10T14:15:38;100564;;;21.12;53.53
70198;BME280;57582;-34.876;138.628;2022-11-10T14:24:33;100556;;;21.11;54.13
70198;BME280;57582;-34.876;138.628;2022-11-10T14:27:32;100557;;;20.98;54.74
70198;BME280;57582;-34.876;138.628;2022-11-10T14:30:30;100550;;;20.91;55.12
70198;BME280;57582;-34.876;138.628;2022-11-10T14:33:29;100555;;;20.78;55.66
70198;BME280;57582;-34.876;138.628;2022-11-10T14:36:29;100548;;;20.79;55.78
70198;BME280;57582;-34.876;138.628;2022-11-10T14:39:31;100540;;;20.83;55.70
70198;BME280;57582;-34.876;138.628;2022-11-10T14:42:31;100530;;;20.80;55.67
70198;BME280;57582;-34.876;138.628;2022-11-10T14:45:29;100536;;;20.55;56.41
70198;BME280;57582;-34.876;138.628;2022-11-10T14:48:31;100530;;;20.50;56.57
70198;BME280;57582;-34.876;138.628;2022-11-10T14:51:29;100533;;;20.53;56.45
70198;BME280;57582;-34.876;138.628;2022-11-10T14:54:30;100536;;;20.58;56.35
70198;BME280;57582;-34.876;138.628;2022-11-10T14:57:29;100532;;;20.63;56.23
70198;BME280;57582;-34.876;138.628;2022-11-10T15:00:32;100524;;;20.68;56.07
70198;BME280;57582;-34.876;138.628;2022-11-10T15:06:30;100516;;;20.73;56.20
70198;BME280;57582;-34.876;138.628;2022-11-10T15:09:30;100518;;;20.74;56.26
70198;BME280;57582;-34.876;138.628;2022-11-10T15:12:29;100507;;;20.77;56.25
70198;BME280;57582;-34.876;138.628;2022-11-10T15:15:30;100500;;;20.81;56.31
70198;BME280;57582;-34.876;138.628;2022-11-10T15:18:30;100502;;;20.87;56.16
70198;BME280;57582;-34.876;138.628;2022-11-10T15:21:29;100501;;;20.94;55.91
70198;BME280;57582;-34.876;138.628;2022-11-10T15:24:29;100504;;;20.97;55.91
70198;BME280;57582;-34.876;138.628;2022-11-10T15:27:30;100506;;;20.94;56.07
70198;BME280;57582;-34.876;138.628;2022-11-10T15:30:30;100500;;;20.88;56.22
70198;BME280;57582;-34.876;138.628;2022-11-10T15:33:30;100510;;;20.83;56.33
70198;BME280;57582;-34.876;138.628;2022-11-10T15:36:33;100501;;;20.82;56.31
70198;BME280;57582;-34.876;138.628;2022-11-10T15:39:29;100506;;;20.80;56.22
70198;BME280;57582;-34.876;138.628;2022-11-10T15:42:30;100510;;;20.76;56.42
70198;BME280;57582;-34.876;138.628;2022-11-10T15:45:29;100502;;;20.76;56.44
70198;BME280;57582;-34.876;138.628;2022-11-10T15:48:34;100505;;;20.48;57.02
70198;BME280;57582;-34.876;138.628;2022-11-10T15:51:29;100496;;;20.48;57.23
70198;BME280;57582;-34.876;138.628;2022-11-10T15:54:31;100505;;;20.53;57.05
70198;BME280;57582;-34.876;138.628;2022-11-10T15:57:29;100506;;;20.64;56.85
70198;BME280;57582;-34.876;138.628;2022-11-10T16:00:29;100507;;;20.69;56.60
70198;BME280;57582;-34.876;138.628;2022-11-10T16:03:29;100506;;;20.74;56.36
70198;BME280;57582;-34.876;138.628;2022-11-10T16:06:30;100511;;;20.73;56.23
70198;BME280;57582;-34.876;138.628;2022-11-10T16:09:29;100522;;;20.75;56.30
70198;BME280;57582;-34.876;138.628;2022-11-10T16:12:30;100523;;;20.72;56.38
70198;BME280;57582;-34.876;138.628;2022-11-10T16:15:29;100531;;;20.75;56.56
70198;BME280;57582;-34.876;138.628;2022-11-10T16:18:30;100529;;;20.76;56.65
70198;BME280;57582;-34.876;138.628;2022-11-10T16:21:30;100530;;;20.81;56.48
70198;BME280;57582;-34.876;138.628;2022-11-10T16:24:29;100535;;;20.84;56.38
70198;BME280;57582;-34.876;138.628;2022-11-10T16:27:30;100531;;;20.85;56.39
70198;BME280;57582;-34.876;138.628;2022-11-10T16:30:32;100529;;;20.91;56.39
70198;BME280;57582;-34.876;138.628;2022-11-10T16:33:30;100540;;;20.94;55.95
70198;BME280;57582;-34.876;138.628;2022-11-10T16:36:30;100538;;;20.95;56.15
70198;BME280;57582;-34.876;138.628;2022-11-10T16:39:30;100533;;;20.97;56.05
70198;BME280;57582;-34.876;138.628;2022-11-10T16:42:30;100527;;;21.01;55.85
70198;BME280;57582;-34.876;138.628;2022-11-10T16:45:30;100525;;;21.05;55.90
70198;BME280;57582;-34.876;138.628;2022-11-10T16:48:30;100530;;;21.08;55.73
70198;BME280;57582;-34.876;138.628;2022-11-10T16:51:32;100537;;;21.12;55.69
70198;BME280;57582;-34.876;138.628;2022-11-10T16:54:30;100532;;;21.14;55.52
70198;BME280;57582;-34.876;138.628;2022-11-10T16:57:30;100533;;;21.15;55.34
70198;BME280;57582;-34.876;138.628;2022-11-10T17:00:30;100535;;;21.16;55.30
70198;BME280;57582;-34.876;138.628;2022-11-10T17:03:31;100533;;;21.13;55.10
70198;BME280;57582;-34.876;138.628;2022-11-10T17:06:30;100531;;;21.10;55.18
70198;BME280;57582;-34.876;138.628;2022-11-10T17:09:30;100531;;;21.12;54.95
70198;BME280;57582;-34.876;138.628;2022-11-10T17:12:30;100532;;;21.08;55.06
70198;BME280;57582;-34.876;138.628;2022-11-10T17:15:30;100532;;;21.06;55.03
70198;BME280;57582;-34.876;138.628;2022-11-10T17:18:30;100537;;;21.04;55.41
70198;BME280;57582;-34.876;138.628;2022-11-10T17:21:30;100536;;;21.03;55.42